createdAt,value
2023-05-09T00:01:31.656Z,0.00
2023-05-09T00:06:31.295Z,0.00
2023-05-09T00:11:31.265Z,0.00
2023-05-09T00:16:31.223Z,0.00
2023-05-09T00:21:31.135Z,0.00
2023-05-09T00:26:31.021Z,0.00
2023-05-09T00:31:31.133Z,0.00
2023-05-09T00:36:30.934Z,0.00
2023-05-09T00:41:33.867Z,0.00
2023-05-09T00:46:30.862Z,0.00
2023-05-09T00:51:30.716Z,0.00
2023-05-09T00:56:30.602Z,0.00
2023-05-09T01:01:31.462Z,0.00
2023-05-09T01:06:30.526Z,0.00
2023-05-09T01:11:30.487Z,0.00
2023-05-09T01:16:30.463Z,0.00
2023-05-09T01:21:30.392Z,0.00
2023-05-09T01:26:30.222Z,0.00
2023-05-09T01:31:30.266Z,0.00
2023-05-09T01:36:30.103Z,0.00
2023-05-09T01:41:33.117Z,0.00
2023-05-09T01:46:29.997Z,0.00
2023-05-09T01:51:29.961Z,0.00
2023-05-09T01:56:29.928Z,0.00
2023-05-09T02:01:29.851Z,0.00
2023-05-09T02:06:29.755Z,0.00
2023-05-09T02:11:30.353Z,0.00
2023-05-09T02:16:29.621Z,0.00
2023-05-09T02:21:29.555Z,0.00
2023-05-09T02:26:29.451Z,0.00
2023-05-09T02:31:29.435Z,0.00
2023-05-09T02:36:29.361Z,0.00
2023-05-09T02:41:32.261Z,0.00
2023-05-09T02:46:29.239Z,0.00
2023-05-09T02:51:29.146Z,4.00
2023-05-09T02:56:29.050Z,4.00
2023-05-09T03:01:29.066Z,4.00
2023-05-09T03:06:28.946Z,12.00
2023-05-09T03:11:28.888Z,20.00
2023-05-09T03:16:28.848Z,40.00
2023-05-09T03:21:29.916Z,76.00
2023-05-09T03:26:28.683Z,140.00
2023-05-09T03:31:28.661Z,228.00
2023-05-09T03:36:28.599Z,352.00
2023-05-09T03:41:31.570Z,508.00
2023-05-09T03:46:28.459Z,688.00
2023-05-09T03:51:28.441Z,904.00
2023-05-09T03:56:28.316Z,1348.00
2023-05-09T04:01:28.596Z,1820.00
2023-05-09T04:06:28.138Z,2604.00
2023-05-09T04:11:28.130Z,3384.00
2023-05-09T04:16:28.067Z,4000.00
2023-05-09T04:21:28.104Z,4676.00
2023-05-09T04:26:27.910Z,5236.00
2023-05-09T04:31:27.917Z,5924.00
2023-05-09T04:36:27.768Z,6620.00
2023-05-09T04:41:30.726Z,7288.00
2023-05-09T04:46:27.665Z,8020.00
2023-05-09T04:51:27.615Z,8704.00
2023-05-09T04:56:27.453Z,9916.00
2023-05-09T05:01:27.459Z,12152.00
2023-05-09T05:06:28.192Z,14752.00
2023-05-09T05:11:27.401Z,14720.00
2023-05-09T05:16:27.275Z,14784.00
2023-05-09T05:21:27.193Z,16288.00
2023-05-09T05:26:27.121Z,16896.00
2023-05-09T05:31:27.124Z,18496.00
2023-05-09T05:36:27.151Z,20928.00
2023-05-09T05:41:31.089Z,20672.00
2023-05-09T05:46:26.945Z,23424.00
2023-05-09T05:51:26.841Z,24512.00
2023-05-09T05:56:26.703Z,25216.00
2023-05-09T06:01:27.151Z,27456.00
2023-05-09T06:06:26.539Z,27712.00
2023-05-09T06:11:26.538Z,31520.00
2023-05-09T06:16:26.451Z,31552.00
2023-05-09T06:21:26.394Z,29984.00
2023-05-09T06:26:26.249Z,30144.00
2023-05-09T06:31:26.367Z,35552.00
2023-05-09T06:36:26.275Z,38432.00
2023-05-09T06:41:29.159Z,39488.00
2023-05-09T06:46:26.174Z,38016.00
2023-05-09T06:51:26.532Z,39808.00
2023-05-09T06:56:26.033Z,42880.00
2023-05-09T07:01:25.974Z,42560.00
2023-05-09T07:06:25.816Z,43296.00
2023-05-09T07:11:25.754Z,43680.00
2023-05-09T07:16:25.714Z,42240.00
2023-05-09T07:21:25.690Z,46560.00
2023-05-09T07:26:25.516Z,46272.00
2023-05-09T07:31:25.827Z,46528.00
2023-05-09T07:36:25.402Z,44608.00
2023-05-09T07:41:28.411Z,49056.00
2023-05-09T07:46:25.310Z,45216.00
2023-05-09T07:51:25.269Z,46144.00
2023-05-09T07:56:25.176Z,52352.00
2023-05-09T08:01:25.142Z,57824.00
2023-05-09T08:06:24.993Z,47072.00
2023-05-09T08:11:24.983Z,47136.00
2023-05-09T08:16:24.935Z,45248.00
2023-05-09T08:21:24.895Z,16608.00
2023-05-09T08:26:24.804Z,9388.00
2023-05-09T08:31:24.772Z,7480.00
2023-05-09T08:36:24.612Z,6920.00
2023-05-09T08:41:27.593Z,6852.00
2023-05-09T08:46:24.518Z,6744.00
2023-05-09T08:51:24.445Z,6520.00
2023-05-09T08:56:24.377Z,6532.00
2023-05-09T09:01:24.461Z,6464.00
2023-05-09T09:06:24.200Z,6276.00
2023-05-09T09:11:25.325Z,6120.00
2023-05-09T09:16:24.128Z,6040.00
2023-05-09T09:21:24.403Z,5836.00
2023-05-09T09:26:24.001Z,5848.00
2023-05-09T09:31:24.040Z,5796.00
2023-05-09T09:36:23.974Z,5736.00
2023-05-09T09:41:26.875Z,5712.00
2023-05-09T09:46:23.853Z,5652.00
2023-05-09T09:51:23.834Z,5552.00
2023-05-09T09:56:23.672Z,5472.00
2023-05-09T10:01:23.658Z,5400.00
2023-05-09T10:06:23.441Z,5372.00
2023-05-09T10:11:23.420Z,5336.00
2023-05-09T10:16:35.703Z,5396.00
2023-05-09T10:21:24.521Z,5344.00
2023-05-09T10:26:23.184Z,5312.00
2023-05-09T10:31:23.451Z,5348.00
2023-05-09T10:36:23.129Z,5192.00
2023-05-09T10:41:26.413Z,5132.00
2023-05-09T10:46:22.973Z,5136.00
2023-05-09T10:51:22.891Z,5096.00
2023-05-09T10:56:22.805Z,5024.00
2023-05-09T11:01:22.786Z,4976.00
2023-05-09T11:06:22.664Z,4840.00
2023-05-09T11:11:22.652Z,4820.00
2023-05-09T11:16:22.568Z,4800.00
2023-05-09T11:21:22.594Z,4740.00
2023-05-09T11:26:22.377Z,4680.00
2023-05-09T11:31:22.417Z,4672.00
2023-05-09T11:36:22.273Z,4564.00
2023-05-09T11:41:25.308Z,4452.00
2023-05-09T11:46:22.232Z,4376.00
2023-05-09T11:51:28.151Z,4360.00
2023-05-09T11:56:22.025Z,4316.00
2023-05-09T12:01:21.932Z,4284.00
2023-05-09T12:06:21.828Z,4328.00
2023-05-09T12:11:21.826Z,4404.00
2023-05-09T12:16:22.305Z,4476.00
2023-05-09T12:21:21.760Z,4484.00
2023-05-09T12:26:21.545Z,4536.00
2023-05-09T12:31:21.563Z,4592.00
2023-05-09T12:36:21.411Z,4784.00
2023-05-09T12:46:21.368Z,5168.00
2023-05-09T12:51:21.307Z,5096.00
2023-05-09T12:56:21.154Z,5308.00
2023-05-09T13:01:21.214Z,5392.00
2023-05-09T13:06:21.053Z,5692.00
2023-05-09T13:11:20.999Z,5816.00
2023-05-09T13:16:20.889Z,5688.00
2023-05-09T13:21:20.851Z,5412.00
2023-05-09T13:26:20.761Z,5488.00
2023-05-09T13:31:20.792Z,5632.00
2023-05-09T13:36:20.593Z,5740.00
2023-05-09T13:41:23.670Z,5704.00
2023-05-09T13:46:20.552Z,5736.00
2023-05-09T13:51:20.905Z,5780.00
2023-05-09T13:56:20.382Z,5944.00
2023-05-09T14:01:20.289Z,6076.00
2023-05-09T14:06:20.209Z,6152.00
2023-05-09T14:11:20.203Z,6324.00
2023-05-09T14:16:20.109Z,6404.00
2023-05-09T14:21:20.043Z,6892.00
2023-05-09T14:26:19.918Z,8204.00
2023-05-09T14:31:19.969Z,9868.00
2023-05-09T14:36:19.868Z,10724.00
2023-05-09T14:41:23.627Z,11848.00
2023-05-09T14:46:19.998Z,11324.00
2023-05-09T14:51:19.619Z,10712.00
2023-05-09T14:57:51.567Z,10672.00
2023-05-09T15:02:51.413Z,11280.00
2023-05-09T15:07:51.355Z,11288.00
2023-05-09T15:12:51.437Z,11856.00
2023-05-09T15:17:51.443Z,11236.00
2023-05-09T15:22:51.147Z,11052.00
2023-05-09T15:27:51.108Z,11420.00
2023-05-09T15:32:51.110Z,11040.00
2023-05-09T15:37:50.963Z,10300.00
2023-05-09T15:42:50.906Z,7416.00
2023-05-09T15:47:54.022Z,6092.00
2023-05-09T15:52:50.834Z,5848.00
2023-05-09T15:57:50.740Z,5356.00
2023-05-09T16:02:50.705Z,5216.00
2023-05-09T16:07:50.618Z,4952.00
2023-05-09T16:12:50.542Z,4984.00
2023-05-09T16:17:50.450Z,4752.00
2023-05-09T16:22:50.353Z,4628.00
2023-05-09T16:27:50.314Z,4680.00
2023-05-09T16:32:50.283Z,4748.00
2023-05-09T16:37:50.264Z,4648.00
2023-05-09T16:42:50.140Z,4396.00
2023-05-09T16:47:53.133Z,4160.00
2023-05-09T16:52:49.970Z,3968.00
2023-05-09T16:57:51.465Z,3800.00
2023-05-09T17:02:49.928Z,3644.00
2023-05-09T17:07:49.812Z,3352.00
2023-05-09T17:12:49.948Z,2932.00
2023-05-09T17:17:49.746Z,2716.00
2023-05-09T17:22:50.183Z,2644.00
2023-05-09T17:27:49.614Z,2620.00
2023-05-09T17:32:49.467Z,2528.00
2023-05-09T17:37:49.422Z,2508.00
2023-05-09T17:42:49.313Z,2484.00
2023-05-09T17:47:52.362Z,2412.00
2023-05-09T17:52:49.164Z,2344.00
2023-05-09T17:57:49.140Z,2132.00
2023-05-09T18:02:49.074Z,1776.00
2023-05-09T18:07:49.611Z,1516.00
2023-05-09T18:12:48.922Z,1308.00
2023-05-09T18:17:48.913Z,1024.00
2023-05-09T18:22:48.789Z,756.00
2023-05-09T18:27:48.813Z,552.00
2023-05-09T18:32:48.751Z,408.00
2023-05-09T18:37:48.663Z,292.00
2023-05-09T18:42:48.536Z,200.00
2023-05-09T18:47:51.533Z,128.00
2023-05-09T18:52:48.410Z,84.00
2023-05-09T18:57:48.363Z,48.00
2023-05-09T19:02:48.277Z,24.00
2023-05-09T19:07:48.230Z,16.00
2023-05-09T19:12:48.182Z,8.00
2023-05-09T19:17:49.779Z,0.00
2023-05-09T19:22:47.978Z,0.00
2023-05-09T19:27:47.973Z,0.00
2023-05-09T19:32:47.888Z,0.00
2023-05-09T19:37:47.862Z,0.00
2023-05-09T19:42:47.769Z,0.00
2023-05-09T19:47:50.762Z,0.00
2023-05-09T19:52:47.730Z,0.00
2023-05-09T19:57:47.794Z,0.00
2023-05-09T20:02:47.601Z,0.00
2023-05-09T20:17:22.165Z,0.00
2023-05-09T20:22:20.050Z,0.00
2023-05-09T20:27:20.972Z,0.00
2023-05-09T20:32:19.904Z,0.00
2023-05-09T20:37:19.888Z,0.00
2023-05-09T20:42:19.813Z,0.00
2023-05-09T20:47:19.794Z,0.00
2023-05-09T20:52:19.694Z,0.00
2023-05-09T20:57:19.620Z,0.00
2023-05-09T21:02:19.581Z,0.00
2023-05-09T21:07:22.579Z,0.00
2023-05-09T21:12:19.512Z,0.00
2023-05-09T21:17:19.434Z,0.00
2023-05-09T21:22:19.284Z,0.00
2023-05-09T21:27:19.326Z,0.00
2023-05-09T21:32:19.183Z,0.00
2023-05-09T21:37:19.211Z,0.00
2023-05-09T21:42:18.973Z,0.00
2023-05-09T21:47:19.106Z,0.00
2023-05-09T21:52:18.840Z,0.00
2023-05-09T21:57:18.902Z,0.00
2023-05-09T22:02:18.816Z,0.00
2023-05-09T22:07:21.751Z,0.00
2023-05-09T22:12:18.689Z,0.00
2023-05-09T22:17:18.717Z,0.00
2023-05-09T22:22:18.522Z,0.00
2023-05-09T22:27:18.419Z,0.00
2023-05-09T22:32:18.334Z,0.00
2023-05-09T22:37:18.326Z,0.00
2023-05-09T22:42:18.188Z,0.00
2023-05-09T22:47:18.231Z,0.00
2023-05-09T22:52:18.042Z,0.00
2023-05-09T22:57:18.013Z,0.00
2023-05-09T23:02:17.926Z,0.00
2023-05-09T23:07:20.865Z,0.00
2023-05-09T23:12:17.759Z,0.00
2023-05-09T23:17:17.749Z,0.00
2023-05-09T23:22:17.611Z,0.00
2023-05-09T23:27:17.583Z,0.00
2023-05-09T23:32:17.487Z,0.00
2023-05-09T23:37:17.456Z,0.00
2023-05-09T23:42:17.363Z,0.00
2023-05-09T23:47:17.324Z,0.00
2023-05-09T23:52:17.223Z,0.00
2023-05-09T23:57:17.259Z,0.00
